createdAt,value
2022-10-18T00:02:11.689Z,11.04
2022-10-18T00:05:00.614Z,11.03
2022-10-18T00:07:48.158Z,11.01
2022-10-18T00:10:35.763Z,10.98
2022-10-18T00:13:24.867Z,10.97
2022-10-18T00:16:15.695Z,10.95
2022-10-18T00:19:03.610Z,10.91
2022-10-18T00:21:52.863Z,10.89
2022-10-18T00:24:40.676Z,10.85
2022-10-18T00:27:30.364Z,10.83
2022-10-18T00:30:18.378Z,10.82
2022-10-18T00:33:06.035Z,10.79
2022-10-18T00:35:58.057Z,10.76
2022-10-18T00:38:48.127Z,10.76
2022-10-18T00:41:39.448Z,10.72
2022-10-18T00:45:14.076Z,10.71
2022-10-18T00:48:05.617Z,10.70
2022-10-18T00:50:55.435Z,10.67
2022-10-18T00:53:43.136Z,10.64
2022-10-18T00:56:35.649Z,10.63
2022-10-18T00:59:23.604Z,10.61
2022-10-18T01:02:11.992Z,10.58
2022-10-18T01:05:01.634Z,10.56
2022-10-18T01:08:37.487Z,10.52
2022-10-18T01:11:48.482Z,10.49
2022-10-18T01:14:50.369Z,10.48
2022-10-18T01:18:08.800Z,10.46
2022-10-18T01:21:23.411Z,10.43
2022-10-18T01:24:51.934Z,10.41
2022-10-18T01:27:56.652Z,10.38
2022-10-18T01:31:00.090Z,10.36
2022-10-18T01:33:51.343Z,10.34
2022-10-18T01:36:43.160Z,10.33
2022-10-18T01:39:37.817Z,10.29
2022-10-18T01:42:26.939Z,10.27
2022-10-18T01:45:16.743Z,10.26
2022-10-18T01:48:06.659Z,10.24
2022-10-18T01:50:55.051Z,10.22
2022-10-18T01:53:43.045Z,10.19
2022-10-18T01:56:42.836Z,10.17
2022-10-18T01:59:51.232Z,10.14
2022-10-18T02:02:52.099Z,10.14
2022-10-18T02:05:50.157Z,10.13
2022-10-18T02:08:47.437Z,10.15
2022-10-18T02:11:38.460Z,10.11
2022-10-18T02:14:28.893Z,10.10
2022-10-18T02:17:20.232Z,10.10
2022-10-18T02:20:12.766Z,10.08
2022-10-18T02:23:04.274Z,10.07
2022-10-18T02:25:53.535Z,10.06
2022-10-18T02:28:42.560Z,10.04
2022-10-18T02:31:38.104Z,10.03
2022-10-18T02:34:33.242Z,10.01
2022-10-18T02:37:21.921Z,10.00
2022-10-18T02:40:12.577Z,9.98
2022-10-18T02:43:00.799Z,9.99
2022-10-18T02:45:48.751Z,10.01
2022-10-18T02:48:36.307Z,10.03
2022-10-18T02:51:25.218Z,10.00
2022-10-18T02:54:12.610Z,10.00
2022-10-18T02:57:01.587Z,10.00
2022-10-18T02:59:49.164Z,10.01
2022-10-18T03:02:36.737Z,10.04
2022-10-18T03:05:24.418Z,10.03
2022-10-18T03:08:12.016Z,10.00
2022-10-18T03:10:59.630Z,9.96
2022-10-18T03:13:48.262Z,9.98
2022-10-18T03:16:35.648Z,9.99
2022-10-18T03:19:23.607Z,9.98
2022-10-18T03:22:11.246Z,9.99
2022-10-18T03:24:58.885Z,9.97
2022-10-18T03:27:46.356Z,9.92
2022-10-18T03:30:35.308Z,9.98
2022-10-18T03:33:22.997Z,10.04
2022-10-18T03:36:10.419Z,10.03
2022-10-18T03:38:57.854Z,10.02
2022-10-18T03:41:45.466Z,10.02
2022-10-18T03:44:33.020Z,10.02
2022-10-18T03:47:22.046Z,10.01
2022-10-18T03:50:10.610Z,10.03
2022-10-18T03:52:58.204Z,10.03
2022-10-18T03:55:45.846Z,10.05
2022-10-18T04:01:22.212Z,10.09
2022-10-18T04:04:11.148Z,10.17
2022-10-18T04:06:59.027Z,10.17
2022-10-18T04:09:46.715Z,10.21
2022-10-18T04:12:34.525Z,10.26
2022-10-18T04:15:22.419Z,10.29
2022-10-18T04:18:10.094Z,10.41
2022-10-18T04:20:58.881Z,10.48
2022-10-18T04:23:48.889Z,10.48
2022-10-18T04:26:36.739Z,10.49
2022-10-18T04:29:24.410Z,10.49
2022-10-18T04:32:12.211Z,10.51
2022-10-18T04:34:59.705Z,10.57
2022-10-18T04:37:48.625Z,10.61
2022-10-18T04:40:36.347Z,10.65
2022-10-18T04:43:24.619Z,10.68
2022-10-18T04:46:12.102Z,10.74
2022-10-18T04:49:01.211Z,10.82
2022-10-18T04:51:48.928Z,10.90
2022-10-18T04:54:39.185Z,10.93
2022-10-18T04:57:27.125Z,10.93
2022-10-18T05:00:15.864Z,10.95
2022-10-18T05:03:03.390Z,11.01
2022-10-18T05:06:01.351Z,11.05
2022-10-18T05:08:50.041Z,11.07
2022-10-18T05:11:39.537Z,11.11
2022-10-18T05:14:27.544Z,11.13
2022-10-18T05:17:15.588Z,11.14
2022-10-18T05:20:04.117Z,11.15
2022-10-18T05:22:51.796Z,11.17
2022-10-18T05:25:40.343Z,11.20
2022-10-18T05:28:45.128Z,11.21
2022-10-18T05:31:32.805Z,11.25
2022-10-18T05:34:20.818Z,11.25
2022-10-18T05:37:08.390Z,11.23
2022-10-18T05:39:55.896Z,11.25
2022-10-18T05:42:43.505Z,11.26
2022-10-18T05:45:32.262Z,11.29
2022-10-18T05:48:20.052Z,11.33
2022-10-18T05:51:08.022Z,11.34
2022-10-18T05:53:55.905Z,11.38
2022-10-18T05:56:43.696Z,11.42
2022-10-18T05:59:31.537Z,11.47
2022-10-18T06:02:20.445Z,11.53
2022-10-18T06:05:08.979Z,11.55
2022-10-18T06:07:59.086Z,11.60
2022-10-18T06:10:46.549Z,11.64
2022-10-18T06:13:34.055Z,11.68
2022-10-18T06:16:26.226Z,11.72
2022-10-18T06:19:17.861Z,11.74
2022-10-18T06:22:05.571Z,11.80
2022-10-18T06:24:57.119Z,11.82
2022-10-18T06:27:44.929Z,11.82
2022-10-18T06:30:34.119Z,11.84
2022-10-18T06:33:21.880Z,11.92
2022-10-18T06:36:15.450Z,11.99
2022-10-18T06:39:03.493Z,12.00
2022-10-18T06:41:51.038Z,12.04
2022-10-18T06:44:38.518Z,12.09
2022-10-18T06:47:26.086Z,12.11
2022-10-18T06:50:15.895Z,12.15
2022-10-18T06:53:08.565Z,12.18
2022-10-18T06:56:02.635Z,12.21
2022-10-18T06:58:50.642Z,12.26
2022-10-18T07:01:39.085Z,12.31
2022-10-18T07:04:30.746Z,12.37
2022-10-18T07:07:18.315Z,12.45
2022-10-18T07:10:12.933Z,12.50
2022-10-18T07:13:27.468Z,12.51
2022-10-18T07:16:17.324Z,12.59
2022-10-18T07:19:06.134Z,12.62
2022-10-18T07:21:54.777Z,12.64
2022-10-18T07:24:42.578Z,12.66
2022-10-18T07:27:31.853Z,12.69
2022-10-18T07:30:20.303Z,12.70
2022-10-18T07:33:08.112Z,12.70
2022-10-18T07:35:56.373Z,12.69
2022-10-18T07:38:44.883Z,12.72
2022-10-18T07:41:36.739Z,12.74
2022-10-18T07:44:42.851Z,12.73
2022-10-18T07:47:36.158Z,12.78
2022-10-18T07:50:25.951Z,12.86
2022-10-18T07:53:14.009Z,12.91
2022-10-18T07:56:07.117Z,13.00
2022-10-18T07:59:00.040Z,13.13
2022-10-18T08:01:49.075Z,13.31
2022-10-18T08:04:38.379Z,13.47
2022-10-18T08:07:26.840Z,13.55
2022-10-18T08:10:14.798Z,13.67
2022-10-18T08:13:05.253Z,13.76
2022-10-18T08:15:59.985Z,13.82
2022-10-18T08:18:49.472Z,13.92
2022-10-18T08:21:37.342Z,14.05
2022-10-18T08:24:26.083Z,14.18
2022-10-18T08:27:14.043Z,14.28
2022-10-18T08:30:02.675Z,14.41
2022-10-18T08:32:50.825Z,14.58
2022-10-18T08:35:39.986Z,14.73
2022-10-18T08:38:30.628Z,14.83
2022-10-18T08:41:31.230Z,14.94
2022-10-18T08:44:23.331Z,15.07
2022-10-18T08:47:16.144Z,15.22
2022-10-18T08:50:07.288Z,15.42
2022-10-18T08:53:04.538Z,15.58
2022-10-18T08:55:56.301Z,15.72
2022-10-18T08:58:45.137Z,15.90
2022-10-18T09:01:43.171Z,16.03
2022-10-18T09:04:47.533Z,16.20
2022-10-18T09:08:17.897Z,16.32
2022-10-18T09:11:20.537Z,16.48
2022-10-18T09:14:42.633Z,16.72
2022-10-18T09:17:38.019Z,16.84
2022-10-18T09:20:28.032Z,16.94
2022-10-18T09:23:21.301Z,17.07
2022-10-18T09:26:16.961Z,17.13
2022-10-18T09:29:14.422Z,17.22
2022-10-18T09:32:14.364Z,17.36
2022-10-18T09:35:13.026Z,17.47
2022-10-18T09:38:05.915Z,17.62
2022-10-18T09:40:57.768Z,17.76
2022-10-18T09:43:55.267Z,18.03
2022-10-18T09:46:48.958Z,18.26
2022-10-18T09:49:43.025Z,18.54
2022-10-18T09:52:39.971Z,18.70
2022-10-18T09:55:34.794Z,18.86
2022-10-18T09:58:25.658Z,18.96
2022-10-18T10:01:19.191Z,19.06
2022-10-18T10:04:07.545Z,19.18
2022-10-18T10:06:57.255Z,19.34
2022-10-18T10:09:47.782Z,19.50
2022-10-18T10:12:37.858Z,19.67
2022-10-18T10:15:31.236Z,19.82
2022-10-18T10:18:29.530Z,19.93
2022-10-18T10:21:19.740Z,20.05
2022-10-18T10:24:08.275Z,20.17
2022-10-18T10:27:05.139Z,20.24
2022-10-18T10:30:04.245Z,20.28
2022-10-18T10:32:57.146Z,20.32
2022-10-18T10:36:01.671Z,20.37
2022-10-18T10:39:05.547Z,20.38
2022-10-18T10:41:55.226Z,20.34
2022-10-18T10:44:56.754Z,20.32
2022-10-18T10:47:45.159Z,20.31
2022-10-18T10:53:53.053Z,20.25
2022-10-18T10:57:00.408Z,20.23
2022-10-18T10:59:51.275Z,20.16
2022-10-18T11:02:39.204Z,20.11
2022-10-18T11:05:44.671Z,20.04
2022-10-18T11:08:41.581Z,19.94
2022-10-18T11:11:36.092Z,19.79
2022-10-18T11:14:28.637Z,19.67
2022-10-18T11:17:23.653Z,19.54
2022-10-18T11:20:27.723Z,19.35
2022-10-18T11:23:17.530Z,19.18
2022-10-18T11:26:29.295Z,19.08
2022-10-18T11:29:49.855Z,19.05
2022-10-18T11:32:44.256Z,19.07
2022-10-18T11:35:40.447Z,19.09
2022-10-18T11:38:37.842Z,19.08
2022-10-18T11:41:32.990Z,19.06
2022-10-18T11:44:29.445Z,19.05
2022-10-18T11:47:27.677Z,19.05
2022-10-18T11:50:26.882Z,19.00
2022-10-18T11:53:27.259Z,18.98
2022-10-18T11:56:23.112Z,18.97
2022-10-18T11:59:37.893Z,18.92
2022-10-18T12:02:55.864Z,18.96
2022-10-18T12:05:47.285Z,19.00
2022-10-18T12:08:39.797Z,19.05
2022-10-18T12:11:32.933Z,19.11
2022-10-18T12:14:27.107Z,19.19
2022-10-18T12:17:43.890Z,19.23
2022-10-18T12:20:37.104Z,19.35
2022-10-18T12:23:34.706Z,19.44
2022-10-18T12:26:23.449Z,19.51
2022-10-18T12:29:21.607Z,19.56
2022-10-18T12:32:12.779Z,19.57
2022-10-18T12:35:05.784Z,19.54
2022-10-18T12:38:07.210Z,19.52
2022-10-18T12:40:56.290Z,19.47
2022-10-18T12:43:53.713Z,19.42
2022-10-18T12:46:46.798Z,19.38
2022-10-18T12:49:39.106Z,19.32
2022-10-18T12:52:33.659Z,19.29
2022-10-18T12:55:36.858Z,19.28
2022-10-18T12:58:31.018Z,19.29
2022-10-18T13:01:20.063Z,19.24
2022-10-18T13:04:34.880Z,19.20
2022-10-18T13:07:41.623Z,19.21
2022-10-18T13:10:40.558Z,19.22
2022-10-18T13:13:58.539Z,19.22
2022-10-18T13:16:53.065Z,19.21
2022-10-18T13:20:02.837Z,19.21
2022-10-18T13:26:20.330Z,19.22
2022-10-18T13:29:37.534Z,19.23
2022-10-18T13:32:33.615Z,19.24
2022-10-18T13:35:45.285Z,19.18
2022-10-18T13:38:50.230Z,19.15
2022-10-18T13:42:11.846Z,19.13
2022-10-18T13:45:33.027Z,19.13
2022-10-18T13:48:49.648Z,19.15
2022-10-18T13:52:03.376Z,19.18
2022-10-18T13:55:04.840Z,19.18
2022-10-18T13:58:03.825Z,19.14
2022-10-18T14:01:04.357Z,19.12
2022-10-18T14:04:19.376Z,19.11
2022-10-18T14:07:09.129Z,19.10
2022-10-18T14:10:00.668Z,19.11
2022-10-18T14:12:58.804Z,19.10
2022-10-18T14:15:50.568Z,19.11
2022-10-18T14:18:43.799Z,19.11
2022-10-18T14:21:39.422Z,19.13
2022-10-18T14:24:30.125Z,19.16
2022-10-18T14:27:21.673Z,19.14
2022-10-18T14:30:12.040Z,19.13
2022-10-18T14:33:00.533Z,19.11
2022-10-18T14:36:03.243Z,19.09
2022-10-18T14:38:55.358Z,19.08
2022-10-18T14:41:51.235Z,19.06
2022-10-18T14:44:39.078Z,19.06
2022-10-18T14:47:28.553Z,19.05
2022-10-18T14:50:27.024Z,19.03
2022-10-18T14:53:22.291Z,19.00
2022-10-18T14:56:28.443Z,18.99
2022-10-18T14:59:22.599Z,18.96
2022-10-18T15:02:17.097Z,18.94
2022-10-18T15:05:09.152Z,18.92
2022-10-18T15:07:59.564Z,18.92
2022-10-18T15:10:48.281Z,18.90
2022-10-18T15:13:49.128Z,18.89
2022-10-18T15:16:38.580Z,18.85
2022-10-18T15:19:34.719Z,18.83
2022-10-18T15:22:33.349Z,18.79
2022-10-18T15:25:30.859Z,18.77
2022-10-18T15:28:29.633Z,18.73
2022-10-18T15:31:25.587Z,18.69
2022-10-18T15:34:19.908Z,18.65
2022-10-18T15:37:21.967Z,18.62
2022-10-18T15:40:37.880Z,18.58
2022-10-18T15:43:37.819Z,18.52
2022-10-18T15:46:41.746Z,18.47
2022-10-18T15:49:55.600Z,18.41
2022-10-18T15:52:44.202Z,18.35
2022-10-18T15:55:53.629Z,18.27
2022-10-18T15:58:44.973Z,18.21
2022-10-18T16:01:39.876Z,18.15
2022-10-18T16:04:30.146Z,18.09
2022-10-18T16:07:22.326Z,18.02
2022-10-18T16:10:14.933Z,17.93
2022-10-18T16:13:03.102Z,17.84
2022-10-18T16:15:51.106Z,17.76
2022-10-18T16:18:40.506Z,17.67
2022-10-18T16:21:31.432Z,17.59
2022-10-18T16:24:19.870Z,17.51
2022-10-18T16:27:11.559Z,17.43
2022-10-18T16:29:59.543Z,17.35
2022-10-18T16:32:49.070Z,17.25
2022-10-18T16:35:38.416Z,17.19
2022-10-18T16:38:35.208Z,17.10
2022-10-18T16:41:24.148Z,17.01
2022-10-18T16:44:12.497Z,16.95
2022-10-18T16:47:00.293Z,16.88
2022-10-18T16:49:49.161Z,16.80
2022-10-18T16:52:38.496Z,16.74
2022-10-18T16:55:26.293Z,16.65
2022-10-18T16:58:21.334Z,16.62
2022-10-18T17:01:11.843Z,16.58
2022-10-18T17:03:59.428Z,16.50
2022-10-18T17:06:48.940Z,16.49
2022-10-18T17:09:38.998Z,16.43
2022-10-18T17:12:27.334Z,16.43
2022-10-18T17:15:14.995Z,16.41
2022-10-18T17:18:03.866Z,16.38
2022-10-18T17:20:51.708Z,16.36
2022-10-18T17:23:39.310Z,16.35
2022-10-18T17:26:30.277Z,16.33
2022-10-18T17:29:19.027Z,16.34
2022-10-18T17:32:06.708Z,16.33
2022-10-18T17:34:54.208Z,16.29
2022-10-18T17:37:45.320Z,16.28
2022-10-18T17:40:41.476Z,16.27
2022-10-18T17:43:32.268Z,16.26
2022-10-18T17:46:21.120Z,16.25
2022-10-18T17:49:08.974Z,16.23
2022-10-18T17:51:56.633Z,16.20
2022-10-18T17:54:44.403Z,16.18
2022-10-18T17:57:32.147Z,16.16
2022-10-18T18:00:24.418Z,16.15
2022-10-18T18:03:13.917Z,16.12
2022-10-18T18:06:01.849Z,16.10
2022-10-18T18:08:51.427Z,16.07
2022-10-18T18:11:43.438Z,16.05
2022-10-18T18:14:31.653Z,16.03
2022-10-18T18:17:28.724Z,16.01
2022-10-18T18:20:24.317Z,15.97
2022-10-18T18:23:12.024Z,15.96
2022-10-18T18:26:00.034Z,15.92
2022-10-18T18:28:48.720Z,15.87
2022-10-18T18:31:41.299Z,15.82
2022-10-18T18:34:32.471Z,15.79
2022-10-18T18:37:20.592Z,15.76
2022-10-18T18:40:09.954Z,15.68
2022-10-18T18:43:07.102Z,15.62
2022-10-18T18:46:07.439Z,15.53
2022-10-18T18:48:57.925Z,15.46
2022-10-18T18:51:47.918Z,15.37
2022-10-18T18:54:39.362Z,15.29
2022-10-18T18:57:27.108Z,15.23
2022-10-18T19:00:16.979Z,15.16
2022-10-18T19:03:08.545Z,15.07
2022-10-18T19:06:05.795Z,15.01
2022-10-18T19:09:01.036Z,14.93
2022-10-18T19:11:50.615Z,14.86
2022-10-18T19:14:38.087Z,14.78
2022-10-18T19:17:26.651Z,14.68
2022-10-18T19:20:17.670Z,14.59
2022-10-18T19:23:06.065Z,14.49
2022-10-18T19:25:55.583Z,14.40
2022-10-18T19:28:44.263Z,14.31
2022-10-18T19:31:32.577Z,14.22
2022-10-18T19:34:23.069Z,14.16
2022-10-18T19:37:12.926Z,14.11
2022-10-18T19:40:00.823Z,14.08
2022-10-18T19:42:49.863Z,14.04
2022-10-18T19:45:37.584Z,14.01
2022-10-18T19:48:25.286Z,14.00
2022-10-18T19:51:17.351Z,13.99
2022-10-18T19:54:08.985Z,13.99
2022-10-18T19:56:56.487Z,14.05
2022-10-18T19:59:45.282Z,14.08
2022-10-18T20:02:33.352Z,14.11
2022-10-18T20:05:21.161Z,14.15
2022-10-18T20:08:08.645Z,14.17
2022-10-18T20:10:57.975Z,14.21
2022-10-18T20:13:45.838Z,14.25
2022-10-18T20:16:35.188Z,14.28
2022-10-18T20:19:23.106Z,14.30
2022-10-18T20:22:10.736Z,14.29
2022-10-18T20:24:59.563Z,14.28
2022-10-18T20:27:47.238Z,14.29
2022-10-18T20:30:35.112Z,14.28
2022-10-18T20:33:24.283Z,14.26
2022-10-18T20:36:15.114Z,14.24
2022-10-18T20:39:03.637Z,14.21
2022-10-18T20:41:51.242Z,14.18
2022-10-18T20:44:43.131Z,14.13
2022-10-18T20:47:31.123Z,14.06
2022-10-18T20:50:20.026Z,14.01
2022-10-18T20:53:07.443Z,13.94
2022-10-18T20:56:05.210Z,13.87
2022-10-18T20:58:56.466Z,13.81
2022-10-18T21:01:44.365Z,13.73
2022-10-18T21:04:31.977Z,13.66
2022-10-18T21:07:22.262Z,13.58
2022-10-18T21:10:11.553Z,13.51
2022-10-18T21:13:01.562Z,13.45
2022-10-18T21:15:55.922Z,13.39
2022-10-18T21:18:43.765Z,13.29
2022-10-18T21:21:31.456Z,13.23
2022-10-18T21:24:22.604Z,13.16
2022-10-18T21:27:10.309Z,13.09
2022-10-18T21:29:57.834Z,13.02
2022-10-18T21:32:45.297Z,12.96
2022-10-18T21:35:38.550Z,12.89
2022-10-18T21:38:26.052Z,12.81
2022-10-18T21:41:17.802Z,12.75
2022-10-18T21:44:09.841Z,12.69
2022-10-18T21:46:58.311Z,12.63
2022-10-18T21:49:45.926Z,12.58
2022-10-18T21:52:33.611Z,12.51
2022-10-18T21:55:21.209Z,12.44
2022-10-18T21:58:10.178Z,12.41
2022-10-18T22:00:58.044Z,12.37
2022-10-18T22:03:49.639Z,12.31
2022-10-18T22:06:37.902Z,12.25
2022-10-18T22:09:25.871Z,12.20
2022-10-18T22:12:13.405Z,12.14
2022-10-18T22:15:02.708Z,12.09
2022-10-18T22:17:50.654Z,12.04
2022-10-18T22:20:38.263Z,11.95
2022-10-18T22:23:26.510Z,11.91
2022-10-18T22:26:17.874Z,11.85
2022-10-18T22:29:08.574Z,11.83
2022-10-18T22:31:57.660Z,11.83
2022-10-18T22:34:45.387Z,11.81
2022-10-18T22:37:33.078Z,11.82
2022-10-18T22:40:20.811Z,11.85
2022-10-18T22:43:08.391Z,11.94
2022-10-18T22:45:55.878Z,11.97
2022-10-18T22:48:45.642Z,12.07
2022-10-18T22:51:33.130Z,12.12
2022-10-18T22:54:21.326Z,12.18
2022-10-18T22:57:10.868Z,12.19
2022-10-18T22:59:58.610Z,12.24
2022-10-18T23:02:46.116Z,12.29
2022-10-18T23:05:39.974Z,12.35
2022-10-18T23:08:27.909Z,12.38
2022-10-18T23:11:16.549Z,12.43
2022-10-18T23:14:06.038Z,12.48
2022-10-18T23:16:53.935Z,12.54
2022-10-18T23:19:41.461Z,12.58
2022-10-18T23:22:33.313Z,12.61
2022-10-18T23:25:21.346Z,12.62
2022-10-18T23:28:09.278Z,12.68
2022-10-18T23:30:57.200Z,12.70
2022-10-18T23:33:45.460Z,12.73
2022-10-18T23:36:35.028Z,12.72
2022-10-18T23:39:24.151Z,12.72
2022-10-18T23:42:11.776Z,12.74
2022-10-18T23:44:59.285Z,12.76
2022-10-18T23:47:46.969Z,12.76
2022-10-18T23:50:34.612Z,12.80
2022-10-18T23:53:23.189Z,12.80
2022-10-18T23:56:14.729Z,12.82
2022-10-18T23:59:02.082Z,12.82
